EHRD

Rotterdam Airport

Rotterdam, The Netherlands
METAR EHRD 141555Z AUTO 27007KT 240V340 9999 FEW019 SCT027 BKN031 20/16 Q1016 NOSIG
Observed Flight Rules
Aug-14 @ 15:55 UTC (7 minutes ago) Visual Flight Rules
Wind Visibility Clouds
270° at 7 knots 10,000+ meters
  • Few at 1,900' AGL
  • Scattered at 2,700' AGL
  • Broken at 3,100' AGL
Temperatures Readings
Current 20°C / 68°F
Dewpoint 16°C / 61°F
Humidity 78%
Altimeter 30" Hg
Pressure 1016 hPa
Elevation -5
METAR EHRD 141555Z AUTO 27007KT 240V340 9999 FEW019 SCT027 BKN031 20/16 Q1016 NOSIG
Observed Flight Rules
Aug-14 @ 15:55 UTC
(7 minutes ago)
VFR
Wind Visibility
270° at 7 knots 10,000+ meters
Clouds
  • Few at 1,900' AGL
  • Scattered at 2,700' AGL
  • Broken at 3,100' AGL
Temperature Dewpoint
20°C / 68°F 16°C / 61°F
Humidity Altimeter Pressure
78% 30" Hg 1016 hPa